Mill City, Nevada
Current Conditions -  °F | °C
As of 7:56 AM on Friday 31 Oct 2014 (Local Time) from KWMC Reporting Station
Broken Clouds Broken Clouds  
Wind Chill: 39°   Ceiling: 12000
Heat Index: 39°   Visibility: 10mi
Dew Point: 22°   Wind: 0mph
Humidity: 50%   Direction: NA
Pressure: 29.88"   Gusts: NA
Location:  40.601°N, 117.984°W
Report Text: KWMC 311456Z AUTO 00000KT 10SM BKN120 04/M06 A2988 RMK AO2 SLP109 T00391056 53001
Loading
Personal Weather Stations






























Interactive Weather Map
Tropical Storm Tracking
New forecast layout! Learn more

10-Day Weather Forecast

Advertisements
Track Severe Weather on mobile